Ubc Tarragona — 5BWR2 — position and weather

sailwx.info

Track history (hours):
 
Tides and Currents Weather Stations Pressure Air Temp Water Temp Dewpoint Dewpoint Depression Visibility Wind Speed Wind Dir Waves Ship Positions

Ubc Tarragona

Last reported at 2017-Nov-18 13:17 UTC. Time now 2017-Nov-19 05:09 UTC.
Position N 29°43' W 095°14'.

Length 182 m; draft 6 m.

Type: Cargo ship. MMSI: 209017000.

Date/timePositionNaut miles runAvg speedWind from/ knotsBaromVisibWave heightAir tempDewpointWater temp
2017-Nov-18 13:17N 29°43' W 095°14'0 0.0
2017-Nov-18 10:05N 29°43' W 095°14'0 0.0
2017-Nov-18 09:44N 29°43' W 095°14'0 0.0
2017-Nov-18 00:23N 29°43' W 095°14'2 0.3
2017-Nov-17 15:23N 29°44' W 095°17'0 0.0
2017-Nov-17 14:59N 29°44' W 095°17'0 0.0
2017-Nov-17 14:26N 29°44' W 095°17'0 0.0
2017-Nov-17 13:59N 29°44' W 095°17'0 0.0
2017-Nov-17 13:17N 29°44' W 095°17'0 0.0
2017-Nov-17 12:56N 29°44' W 095°17'0 0.0
2017-Nov-17 12:26N 29°44' W 095°17'0 0.0
2017-Nov-17 11:56N 29°44' W 095°17'0 0.0
2017-Nov-17 11:23N 29°44' W 095°17'0 0.0
2017-Nov-17 10:59N 29°44' W 095°17'0 0.0
2017-Nov-17 10:23N 29°44' W 095°17'0 0.0
2017-Nov-17 09:59N 29°44' W 095°17'0 0.0
2017-Nov-17 08:44N 29°44' W 095°17'0 0.0
2017-Nov-17 08:29N 29°44' W 095°17'0 0.0
2017-Nov-17 07:59N 29°44' W 095°17'0 0.0
2017-Nov-17 07:29N 29°44' W 095°17'0 0.0
2017-Nov-17 06:59N 29°44' W 095°17'0 0.0
2017-Nov-17 05:44N 29°44' W 095°17'0 0.0
2017-Nov-17 05:29N 29°44' W 095°17'0 0.0
2017-Nov-17 04:50N 29°44' W 095°17'0 0.0
2017-Nov-17 04:26N 29°44' W 095°17'0 0.0
2017-Nov-17 03:56N 29°44' W 095°17'0 0.0
2017-Nov-17 03:29N 29°44' W 095°17'0 0.0
2017-Nov-17 02:56N 29°44' W 095°17'0 0.0
2017-Nov-17 02:29N 29°44' W 095°17'0 0.0
2017-Nov-17 01:05N 29°44' W 095°17'0 0.0
2017-Nov-17 00:56N 29°44' W 095°17'0 0.0
2017-Nov-17 00:26N 29°44' W 095°17'0 0.0
2017-Nov-16 23:53N 29°44' W 095°17'0 0.0
2017-Nov-16 23:29N 29°44' W 095°17'0 0.0
2017-Nov-16 22:59N 29°44' W 095°17'0 0.0
2017-Nov-16 22:23N 29°44' W 095°17'0 0.0
2017-Nov-16 21:56N 29°44' W 095°17'0 0.0
2017-Nov-16 21:26N 29°44' W 095°17'0 0.0
2017-Nov-16 20:59N 29°44' W 095°17'0 0.0
2017-Nov-16 20:17N 29°44' W 095°17'0 0.0
2017-Nov-16 19:56N 29°44' W 095°17'0 0.0
2017-Nov-16 19:29N 29°44' W 095°17'0 0.0
2017-Nov-16 18:44N 29°44' W 095°17'0 0.0
2017-Nov-16 18:29N 29°44' W 095°17'0 0.0
2017-Nov-16 17:59N 29°44' W 095°17'0 0.0
2017-Nov-16 17:29N 29°44' W 095°17'0 0.0
2017-Nov-16 16:50N 29°44' W 095°17'0 0.0
2017-Nov-16 16:14N 29°44' W 095°17'0 0.0
2017-Nov-16 15:56N 29°44' W 095°17'0 0.0
2017-Nov-16 15:26N 29°44' W 095°17'0 0.0
2017-Nov-16 14:59N 29°44' W 095°17'0 0.0
2017-Nov-16 14:29N 29°44' W 095°17'0 0.0
2017-Nov-16 13:59N 29°44' W 095°17'0 0.0
2017-Nov-16 13:26N 29°44' W 095°17'0 0.0
2017-Nov-16 12:59N 29°44' W 095°17'0 0.0
2017-Nov-16 12:26N 29°44' W 095°17'0 0.0
2017-Nov-16 11:56N 29°44' W 095°17'0 0.0
2017-Nov-16 11:23N 29°44' W 095°17'0 0.0
2017-Nov-16 10:56N 29°44' W 095°17'0 0.0
2017-Nov-16 10:26N 29°44' W 095°17'0 0.0
2017-Nov-16 09:57N 29°44' W 095°17'1 1.3
2017-Nov-16 09:30N 29°44' W 095°17'2 3.8
2017-Nov-16 09:00N 29°43' W 095°14'3 5.9
2017-Nov-16 08:30N 29°45' W 095°12'3 6.7
2017-Nov-16 08:00N 29°44' W 095°08'3 6.6
2017-Nov-16 07:30N 29°46' W 095°04'4 8.1
2017-Nov-16 07:00N 29°43' W 095°01'510.2
2017-Nov-16 06:31N 29°38' W 094°58'612.3
2017-Nov-16 06:00N 29°33' W 094°55'712.5
2017-Nov-16 05:27N 29°27' W 094°51'59813.0
2017-Nov-14 07:27N 19°32' W 095°55'512.2
2017-Nov-14 07:00N 19°27' W 095°56'612.5
2017-Nov-14 06:30N 19°20' W 095°57'612.0
2017-Nov-14 06:00N 19°14' W 095°57'612.9
2017-Nov-14 05:30N 19°11' W 096°03'5 8.6
2017-Nov-14 04:56N 19°13' W 096°08'0 0.0
2017-Nov-14 04:29N 19°13' W 096°08'0 0.0
2017-Nov-14 03:59N 19°13' W 096°08'0 0.0
2017-Nov-14 03:29N 19°13' W 096°08'0 0.0
2017-Nov-14 02:59N 19°13' W 096°08'0 0.0
2017-Nov-14 02:26N 19°13' W 096°08'0 0.0
2017-Nov-14 01:59N 19°13' W 096°08'0 0.0
2017-Nov-14 01:26N 19°13' W 096°08'0 0.0
2017-Nov-14 00:59N 19°13' W 096°08'0 0.0
2017-Nov-14 00:29N 19°13' W 096°08'0 0.0
2017-Nov-13 23:59N 19°13' W 096°08'0 0.0
2017-Nov-13 23:29N 19°13' W 096°08'0 0.0
2017-Nov-13 22:56N 19°13' W 096°08'0 0.0
2017-Nov-13 22:29N 19°13' W 096°08'0 0.0
2017-Nov-13 21:56N 19°13' W 096°08'0 0.0
2017-Nov-13 01:50N 19°13' W 096°08'0 0.0
2017-Nov-13 01:29N 19°13' W 096°08'0 0.0
2017-Nov-13 00:59N 19°13' W 096°08'0 0.0
2017-Nov-13 00:23N 19°13' W 096°08'0 0.0
2017-Nov-12 23:56N 19°13' W 096°08'0 0.0
2017-Nov-12 23:26N 19°13' W 096°08'0 0.0
2017-Nov-12 22:59N 19°13' W 096°08'0 0.0
2017-Nov-12 22:26N 19°13' W 096°08'0 0.0
2017-Nov-12 21:56N 19°13' W 096°08'0 0.0
2017-Nov-12 21:26N 19°13' W 096°08'0 0.0
2017-Nov-12 20:50N 19°13' W 096°08'0 0.0
2017-Nov-12 20:20N 19°13' W 096°08'0 0.0
2017-Nov-12 19:56N 19°13' W 096°08'0 0.0
2017-Nov-12 19:29N 19°13' W 096°08'0 0.0
2017-Nov-12 18:59N 19°13' W 096°08'0 0.0
2017-Nov-12 18:26N 19°13' W 096°08'0 0.0
2017-Nov-12 17:59N 19°13' W 096°08'0 0.0
2017-Nov-12 17:29N 19°13' W 096°08'0 0.0
2017-Nov-12 16:59N 19°13' W 096°08'0 0.0
2017-Nov-12 16:29N 19°13' W 096°08'0 0.0
2017-Nov-12 15:59N 19°13' W 096°08'0 0.0
2017-Nov-12 15:26N 19°13' W 096°08'0 0.0
2017-Nov-12 14:59N 19°13' W 096°08'0 0.0
2017-Nov-12 14:26N 19°13' W 096°08'0 0.0
2017-Nov-12 13:59N 19°13' W 096°08'0 0.0
2017-Nov-12 13:29N 19°13' W 096°08'0 0.0
2017-Nov-12 12:56N 19°13' W 096°08'0 0.0
2017-Nov-12 12:29N 19°13' W 096°08'0 0.0
2017-Nov-12 11:53N 19°13' W 096°08'0 0.0
2017-Nov-12 11:29N 19°13' W 096°08'0 0.0
2017-Nov-12 10:59N 19°13' W 096°08'0 0.0
2017-Nov-12 10:29N 19°13' W 096°08'0 0.0
2017-Nov-12 09:59N 19°13' W 096°08'0 0.0
2017-Nov-12 09:29N 19°13' W 096°08'0 0.0
2017-Nov-12 08:59N 19°13' W 096°08'0 0.0
2017-Nov-12 08:29N 19°13' W 096°08'0 0.0
2017-Nov-12 07:59N 19°13' W 096°08'0 0.0
2017-Nov-12 07:26N 19°13' W 096°08'0 0.0
2017-Nov-12 06:56N 19°13' W 096°08'0 0.0
2017-Nov-12 06:29N 19°13' W 096°08'0 0.0
2017-Nov-12 05:59N 19°13' W 096°08'0 0.0
2017-Nov-12 05:29N 19°13' W 096°08'0 0.0
2017-Nov-12 04:59N 19°13' W 096°08'0 0.0
2017-Nov-12 04:26N 19°13' W 096°08'0 0.0
2017-Nov-12 03:53N 19°13' W 096°08'0 0.0
2017-Nov-12 03:29N 19°13' W 096°08'0 0.0
2017-Nov-12 02:59N 19°13' W 096°08'0 0.0
2017-Nov-12 02:29N 19°13' W 096°08'0 0.0
2017-Nov-12 01:59N 19°13' W 096°08'0 0.0
2017-Nov-12 01:29N 19°13' W 096°08'0 0.0
2017-Nov-12 00:59N 19°13' W 096°08'0 0.0
2017-Nov-12 00:26N 19°13' W 096°08'0 0.0
2017-Nov-11 23:53N 19°13' W 096°08'0 0.0
2017-Nov-11 23:29N 19°13' W 096°08'0 0.0
2017-Nov-11 22:59N 19°13' W 096°08'0 0.0
2017-Nov-11 22:29N 19°13' W 096°08'0 0.0
2017-Nov-11 21:53N 19°13' W 096°08'0 0.0
2017-Nov-11 21:26N 19°13' W 096°08'0 0.0
2017-Nov-11 20:56N 19°13' W 096°08'0 0.0
2017-Nov-11 20:26N 19°13' W 096°08'0 0.0
2017-Nov-11 19:56N 19°13' W 096°08'0 0.0
2017-Nov-11 19:26N 19°13' W 096°08'0 0.0
2017-Nov-11 18:59N 19°13' W 096°08'0 0.0
2017-Nov-11 18:26N 19°13' W 096°08'0 0.0
2017-Nov-11 17:50N 19°13' W 096°08'0 0.0
2017-Nov-11 17:26N 19°13' W 096°08'0 0.0
2017-Nov-11 16:59N 19°13' W 096°08'0 0.0
2017-Nov-11 16:20N 19°13' W 096°08'0 0.0
2017-Nov-11 15:56N 19°13' W 096°08'0 0.0
2017-Nov-11 15:29N 19°13' W 096°08'0 0.0
2017-Nov-11 14:59N 19°13' W 096°08'0 0.0
2017-Nov-11 14:26N 19°13' W 096°08'0 0.0
2017-Nov-11 13:50N 19°13' W 096°08'0 0.0
2017-Nov-11 13:26N 19°13' W 096°08'0 0.0
2017-Nov-11 12:56N 19°13' W 096°08'0 0.0
2017-Nov-11 12:26N 19°13' W 096°08'0 0.0
2017-Nov-11 11:56N 19°13' W 096°08'0 0.0
2017-Nov-11 11:29N 19°13' W 096°08'0 0.0
2017-Nov-11 10:59N 19°13' W 096°08'0 0.0
2017-Nov-11 10:29N 19°13' W 096°08'0 0.0
2017-Nov-11 09:59N 19°13' W 096°08'0 0.0
2017-Nov-11 09:29N 19°13' W 096°08'0 0.0
2017-Nov-11 08:59N 19°13' W 096°08'0 0.0
2017-Nov-11 08:29N 19°13' W 096°08'0 0.0
2017-Nov-11 07:59N 19°13' W 096°08'0 0.0
2017-Nov-11 07:26N 19°13' W 096°08'0 0.0
2017-Nov-11 06:59N 19°13' W 096°08'0 0.0
2017-Nov-11 06:29N 19°13' W 096°08'0 0.0
2017-Nov-11 05:56N 19°13' W 096°08'0 0.0
2017-Nov-11 05:26N 19°13' W 096°08'0 0.0
2017-Nov-11 04:59N 19°13' W 096°08'0 0.0
2017-Nov-11 04:29N 19°13' W 096°08'0 0.0
2017-Nov-11 03:59N 19°13' W 096°08'0 0.0
2017-Nov-11 03:29N 19°13' W 096°08'0 0.0
2017-Nov-11 02:59N 19°13' W 096°08'0 0.0
2017-Nov-11 02:29N 19°13' W 096°08'0 0.0
2017-Nov-11 01:59N 19°13' W 096°08'0 0.0
2017-Nov-11 01:29N 19°13' W 096°08'0 0.0
2017-Nov-11 00:59N 19°13' W 096°08'0 0.0
2017-Nov-11 00:29N 19°13' W 096°08'0 0.0
2017-Nov-10 23:56N 19°13' W 096°08'0 0.0
2017-Nov-10 23:29N 19°13' W 096°08'0 0.0
2017-Nov-10 22:56N 19°13' W 096°08'0 0.0
2017-Nov-10 22:26N 19°13' W 096°08'0 0.0
2017-Nov-10 21:59N 19°13' W 096°08'0 0.0
2017-Nov-10 21:26N 19°13' W 096°08'0 0.0
2017-Nov-10 20:59N 19°13' W 096°08'0 0.0
2017-Nov-10 20:26N 19°13' W 096°08'0 0.0
2017-Nov-10 19:56N 19°13' W 096°08'0 0.0
2017-Nov-10 19:29N 19°13' W 096°08'0 0.0
2017-Nov-10 18:59N 19°13' W 096°08'0 0.0
2017-Nov-10 18:23N 19°13' W 096°08'0 0.0
2017-Nov-10 17:59N 19°13' W 096°08'0 0.0
2017-Nov-10 17:29N 19°13' W 096°08'0 0.0
2017-Nov-10 16:59N 19°13' W 096°08'0 0.0
2017-Nov-10 16:29N 19°13' W 096°08'0 0.0
2017-Nov-10 15:59N 19°13' W 096°08'0 0.0
2017-Nov-10 15:29N 19°13' W 096°08'0 0.0
2017-Nov-10 14:56N 19°13' W 096°08'0 0.0
2017-Nov-10 14:29N 19°13' W 096°08'0 0.0
2017-Nov-10 13:59N 19°13' W 096°08'0 0.0
2017-Nov-10 13:29N 19°13' W 096°08'0 0.0
2017-Nov-10 12:59N 19°13' W 096°08'0 0.0
2017-Nov-10 12:29N 19°13' W 096°08'0 0.0
2017-Nov-10 11:59N 19°13' W 096°08'0 0.0
2017-Nov-10 11:29N 19°13' W 096°08'0 0.0
2017-Nov-10 10:59N 19°13' W 096°08'0 0.0
2017-Nov-10 10:23N 19°13' W 096°08'0 0.0
2017-Nov-10 09:59N 19°13' W 096°08'0 0.0
2017-Nov-10 09:29N 19°13' W 096°08'0 0.0
2017-Nov-10 08:59N 19°13' W 096°08'0 0.0
2017-Nov-10 08:29N 19°13' W 096°08'0 0.0
2017-Nov-10 07:59N 19°13' W 096°08'0 0.0
2017-Nov-10 07:29N 19°13' W 096°08'0 0.0
2017-Nov-10 06:59N 19°13' W 096°08'0 0.0
2017-Nov-10 06:26N 19°13' W 096°08'0 0.0
2017-Nov-10 05:59N 19°13' W 096°08'0 0.0
2017-Nov-10 05:26N 19°13' W 096°08'0 0.0
2017-Nov-10 04:59N 19°13' W 096°08'0 0.0
2017-Nov-10 04:29N 19°13' W 096°08'0 0.0
2017-Nov-10 03:59N 19°13' W 096°08'0 0.0
2017-Nov-10 03:29N 19°13' W 096°08'0 0.0
2017-Nov-10 02:59N 19°13' W 096°08'0 0.0
2017-Nov-10 02:29N 19°13' W 096°08'0 0.0
2017-Nov-10 01:59N 19°13' W 096°08'0 0.0
2017-Nov-10 01:29N 19°13' W 096°08'0 0.0
2017-Nov-10 00:53N 19°13' W 096°08'0 0.0
2017-Nov-10 00:29N 19°13' W 096°08'0 0.0
2017-Nov-09 23:59N 19°13' W 096°08'0 0.0
2017-Nov-09 23:29N 19°13' W 096°08'0 0.0
2017-Nov-09 22:59N 19°13' W 096°08'0 0.0
2017-Nov-09 22:29N 19°13' W 096°08'0 0.0
2017-Nov-09 21:59N 19°13' W 096°08'0 0.0
2017-Nov-09 21:23N 19°13' W 096°08'0 0.0
2017-Nov-09 20:59N 19°13' W 096°08'0 0.0
2017-Nov-09 20:29N 19°13' W 096°08'0 0.0
2017-Nov-09 19:59N 19°13' W 096°08'0 0.0
2017-Nov-09 19:29N 19°13' W 096°08'0 0.0
2017-Nov-09 18:59N 19°13' W 096°08'0 0.0
2017-Nov-09 18:29N 19°13' W 096°08'0 0.0
2017-Nov-09 17:59N 19°13' W 096°08'0 0.0
2017-Nov-09 17:26N 19°13' W 096°08'0 0.0
2017-Nov-09 16:59N 19°13' W 096°08'0 0.0
2017-Nov-09 16:29N 19°13' W 096°08'0 0.0
2017-Nov-09 15:59N 19°13' W 096°08'0 0.0
2017-Nov-09 15:29N 19°13' W 096°08'0 0.0
2017-Nov-09 14:59N 19°13' W 096°08'0 0.0
2017-Nov-09 14:29N 19°13' W 096°08'0 0.0
2017-Nov-09 13:56N 19°13' W 096°08'0 0.0
2017-Nov-09 13:29N 19°13' W 096°08'0 0.0
2017-Nov-09 12:59N 19°13' W 096°08'0 0.0
2017-Nov-09 12:29N 19°13' W 096°08'0 0.0
2017-Nov-09 11:59N 19°13' W 096°08'0 0.0
2017-Nov-09 11:26N 19°13' W 096°08'0 0.0
2017-Nov-09 10:56N 19°13' W 096°08'0 0.0
2017-Nov-09 10:29N 19°13' W 096°08'0 0.0
2017-Nov-09 09:59N 19°13' W 096°08'0 0.0
2017-Nov-09 09:26N 19°13' W 096°08'0 0.0
2017-Nov-09 08:56N 19°13' W 096°08'0 0.0
2017-Nov-09 08:29N 19°13' W 096°08'0 0.0
2017-Nov-09 07:59N 19°13' W 096°08'0 0.0
2017-Nov-09 07:26N 19°13' W 096°08'0 0.0
2017-Nov-09 06:59N 19°13' W 096°08'0 0.0
2017-Nov-09 06:29N 19°13' W 096°08'0 0.0
2017-Nov-09 05:59N 19°13' W 096°08'0 0.0
2017-Nov-09 05:29N 19°13' W 096°08'0 0.0
2017-Nov-09 04:56N 19°13' W 096°08'0 0.0
2017-Nov-09 04:29N 19°13' W 096°08'0 0.0
2017-Nov-09 03:59N 19°13' W 096°08'0 0.0
2017-Nov-09 03:29N 19°13' W 096°08'0 0.0
2017-Nov-09 02:56N 19°13' W 096°08'0 0.0
2017-Nov-09 02:29N 19°13' W 096°08'0 0.0
2017-Nov-09 02:00N 19°13' W 096°08'1 1.6
2017-Nov-09 01:31N 19°12' W 096°08'5 8.9
2017-Nov-09 01:00N 19°10' W 096°03'3 4.2
2017-Nov-09 00:23N 19°08' W 096°01'0 0.0
2017-Nov-08 23:59N 19°08' W 096°01'0 0.0
2017-Nov-08 23:29N 19°08' W 096°01'0 0.0
2017-Nov-08 22:59N 19°08' W 096°01'0 0.0
2017-Nov-08 22:29N 19°08' W 096°01'0 0.0
2017-Nov-08 21:59N 19°08' W 096°01'0 0.0
2017-Nov-08 21:17N 19°08' W 096°01'0 0.0
2017-Nov-08 20:59N 19°08' W 096°01'0 0.0
2017-Nov-08 20:29N 19°08' W 096°01'0 0.0
2017-Nov-08 19:59N 19°08' W 096°01'0 0.0
2017-Nov-08 19:29N 19°08' W 096°01'0 0.0
2017-Nov-08 18:53N 19°08' W 096°01'0 0.0
2017-Nov-08 18:29N 19°08' W 096°01'0 0.0
2017-Nov-08 17:59N 19°08' W 096°01'0 0.0
2017-Nov-08 17:29N 19°08' W 096°01'0 0.0
2017-Nov-08 16:59N 19°08' W 096°01'0 0.0
2017-Nov-08 16:29N 19°08' W 096°01'0 0.0
2017-Nov-08 15:59N 19°08' W 096°01'0 0.0
2017-Nov-08 15:29N 19°08' W 096°01'0 0.1
2017-Nov-08 14:59N 19°08' W 096°01'0 0.0
2017-Nov-08 14:29N 19°08' W 096°01'0 0.0
2017-Nov-08 13:59N 19°08' W 096°01'0 0.0
2017-Nov-08 13:29N 19°08' W 096°01'  
Track history (hours):
 
Tides and Currents Weather Stations Pressure Air Temp Water Temp Dewpoint Dewpoint Depression Visibility Wind Speed Wind Dir Waves Ship Positions

Ubc Tarragona

Last reported at 2017-Nov-18 13:17 UTC. Time now 2017-Nov-19 05:09 UTC.
Position N 29°43' W 095°14'.

Length 182 m; draft 6 m.

Type: Cargo ship. MMSI: 209017000.

Date/timePositionNaut miles runAvg speedWind from/ knotsBaromVisibWave heightAir tempDewpointWater temp
2017-Nov-18 13:17N 29°43' W 095°14'0 0.0
2017-Nov-18 10:05N 29°43' W 095°14'0 0.0
2017-Nov-18 09:44N 29°43' W 095°14'0 0.0
2017-Nov-18 00:23N 29°43' W 095°14'2 0.3
2017-Nov-17 15:23N 29°44' W 095°17'0 0.0
2017-Nov-17 14:59N 29°44' W 095°17'0 0.0
2017-Nov-17 14:26N 29°44' W 095°17'0 0.0
2017-Nov-17 13:59N 29°44' W 095°17'0 0.0
2017-Nov-17 13:17N 29°44' W 095°17'0 0.0
2017-Nov-17 12:56N 29°44' W 095°17'0 0.0
2017-Nov-17 12:26N 29°44' W 095°17'0 0.0
2017-Nov-17 11:56N 29°44' W 095°17'0 0.0
2017-Nov-17 11:23N 29°44' W 095°17'0 0.0
2017-Nov-17 10:59N 29°44' W 095°17'0 0.0
2017-Nov-17 10:23N 29°44' W 095°17'0 0.0
2017-Nov-17 09:59N 29°44' W 095°17'0 0.0
2017-Nov-17 08:44N 29°44' W 095°17'0 0.0
2017-Nov-17 08:29N 29°44' W 095°17'0 0.0
2017-Nov-17 07:59N 29°44' W 095°17'0 0.0
2017-Nov-17 07:29N 29°44' W 095°17'0 0.0
2017-Nov-17 06:59N 29°44' W 095°17'0 0.0
2017-Nov-17 05:44N 29°44' W 095°17'0 0.0
2017-Nov-17 05:29N 29°44' W 095°17'0 0.0
2017-Nov-17 04:50N 29°44' W 095°17'0 0.0
2017-Nov-17 04:26N 29°44' W 095°17'0 0.0
2017-Nov-17 03:56N 29°44' W 095°17'0 0.0
2017-Nov-17 03:29N 29°44' W 095°17'0 0.0
2017-Nov-17 02:56N 29°44' W 095°17'0 0.0
2017-Nov-17 02:29N 29°44' W 095°17'0 0.0
2017-Nov-17 01:05N 29°44' W 095°17'0 0.0
2017-Nov-17 00:56N 29°44' W 095°17'0 0.0
2017-Nov-17 00:26N 29°44' W 095°17'0 0.0
2017-Nov-16 23:53N 29°44' W 095°17'0 0.0
2017-Nov-16 23:29N 29°44' W 095°17'0 0.0
2017-Nov-16 22:59N 29°44' W 095°17'0 0.0
2017-Nov-16 22:23N 29°44' W 095°17'0 0.0
2017-Nov-16 21:56N 29°44' W 095°17'0 0.0
2017-Nov-16 21:26N 29°44' W 095°17'0 0.0
2017-Nov-16 20:59N 29°44' W 095°17'0 0.0
2017-Nov-16 20:17N 29°44' W 095°17'0 0.0
2017-Nov-16 19:56N 29°44' W 095°17'0 0.0
2017-Nov-16 19:29N 29°44' W 095°17'0 0.0
2017-Nov-16 18:44N 29°44' W 095°17'0 0.0
2017-Nov-16 18:29N 29°44' W 095°17'0 0.0
2017-Nov-16 17:59N 29°44' W 095°17'0 0.0
2017-Nov-16 17:29N 29°44' W 095°17'0 0.0
2017-Nov-16 16:50N 29°44' W 095°17'0 0.0
2017-Nov-16 16:14N 29°44' W 095°17'0 0.0
2017-Nov-16 15:56N 29°44' W 095°17'0 0.0
2017-Nov-16 15:26N 29°44' W 095°17'0 0.0
2017-Nov-16 14:59N 29°44' W 095°17'0 0.0
2017-Nov-16 14:29N 29°44' W 095°17'0 0.0
2017-Nov-16 13:59N 29°44' W 095°17'0 0.0
2017-Nov-16 13:26N 29°44' W 095°17'0 0.0
2017-Nov-16 12:59N 29°44' W 095°17'0 0.0
2017-Nov-16 12:26N 29°44' W 095°17'0 0.0
2017-Nov-16 11:56N 29°44' W 095°17'0 0.0
2017-Nov-16 11:23N 29°44' W 095°17'0 0.0
2017-Nov-16 10:56N 29°44' W 095°17'0 0.0
2017-Nov-16 10:26N 29°44' W 095°17'0 0.0
2017-Nov-16 09:57N 29°44' W 095°17'1 1.3
2017-Nov-16 09:30N 29°44' W 095°17'2 3.8
2017-Nov-16 09:00N 29°43' W 095°14'3 5.9
2017-Nov-16 08:30N 29°45' W 095°12'3 6.7
2017-Nov-16 08:00N 29°44' W 095°08'3 6.6
2017-Nov-16 07:30N 29°46' W 095°04'4 8.1
2017-Nov-16 07:00N 29°43' W 095°01'510.2
2017-Nov-16 06:31N 29°38' W 094°58'612.3
2017-Nov-16 06:00N 29°33' W 094°55'712.5
2017-Nov-16 05:27N 29°27' W 094°51'59813.0
2017-Nov-14 07:27N 19°32' W 095°55'512.2
2017-Nov-14 07:00N 19°27' W 095°56'612.5
2017-Nov-14 06:30N 19°20' W 095°57'612.0
2017-Nov-14 06:00N 19°14' W 095°57'612.9
2017-Nov-14 05:30N 19°11' W 096°03'5 8.6
2017-Nov-14 04:56N 19°13' W 096°08'0 0.0
2017-Nov-14 04:29N 19°13' W 096°08'0 0.0
2017-Nov-14 03:59N 19°13' W 096°08'0 0.0
2017-Nov-14 03:29N 19°13' W 096°08'0 0.0
2017-Nov-14 02:59N 19°13' W 096°08'0 0.0
2017-Nov-14 02:26N 19°13' W 096°08'0 0.0
2017-Nov-14 01:59N 19°13' W 096°08'0 0.0
2017-Nov-14 01:26N 19°13' W 096°08'0 0.0
2017-Nov-14 00:59N 19°13' W 096°08'0 0.0
2017-Nov-14 00:29N 19°13' W 096°08'0 0.0
2017-Nov-13 23:59N 19°13' W 096°08'0 0.0
2017-Nov-13 23:29N 19°13' W 096°08'0 0.0
2017-Nov-13 22:56N 19°13' W 096°08'0 0.0
2017-Nov-13 22:29N 19°13' W 096°08'0 0.0
2017-Nov-13 21:56N 19°13' W 096°08'0 0.0
2017-Nov-13 01:50N 19°13' W 096°08'0 0.0
2017-Nov-13 01:29N 19°13' W 096°08'0 0.0
2017-Nov-13 00:59N 19°13' W 096°08'0 0.0
2017-Nov-13 00:23N 19°13' W 096°08'0 0.0
2017-Nov-12 23:56N 19°13' W 096°08'0 0.0
2017-Nov-12 23:26N 19°13' W 096°08'0 0.0
2017-Nov-12 22:59N 19°13' W 096°08'0 0.0
2017-Nov-12 22:26N 19°13' W 096°08'0 0.0
2017-Nov-12 21:56N 19°13' W 096°08'0 0.0
2017-Nov-12 21:26N 19°13' W 096°08'0 0.0
2017-Nov-12 20:50N 19°13' W 096°08'0 0.0
2017-Nov-12 20:20N 19°13' W 096°08'0 0.0
2017-Nov-12 19:56N 19°13' W 096°08'0 0.0
2017-Nov-12 19:29N 19°13' W 096°08'0 0.0
2017-Nov-12 18:59N 19°13' W 096°08'0 0.0
2017-Nov-12 18:26N 19°13' W 096°08'0 0.0
2017-Nov-12 17:59N 19°13' W 096°08'0 0.0
2017-Nov-12 17:29N 19°13' W 096°08'0 0.0
2017-Nov-12 16:59N 19°13' W 096°08'0 0.0
2017-Nov-12 16:29N 19°13' W 096°08'0 0.0
2017-Nov-12 15:59N 19°13' W 096°08'0 0.0
2017-Nov-12 15:26N 19°13' W 096°08'0 0.0
2017-Nov-12 14:59N 19°13' W 096°08'0 0.0
2017-Nov-12 14:26N 19°13' W 096°08'0 0.0
2017-Nov-12 13:59N 19°13' W 096°08'0 0.0
2017-Nov-12 13:29N 19°13' W 096°08'0 0.0
2017-Nov-12 12:56N 19°13' W 096°08'0 0.0
2017-Nov-12 12:29N 19°13' W 096°08'0 0.0
2017-Nov-12 11:53N 19°13' W 096°08'0 0.0
2017-Nov-12 11:29N 19°13' W 096°08'0 0.0
2017-Nov-12 10:59N 19°13' W 096°08'0 0.0
2017-Nov-12 10:29N 19°13' W 096°08'0 0.0
2017-Nov-12 09:59N 19°13' W 096°08'0 0.0
2017-Nov-12 09:29N 19°13' W 096°08'0 0.0
2017-Nov-12 08:59N 19°13' W 096°08'0 0.0
2017-Nov-12 08:29N 19°13' W 096°08'0 0.0
2017-Nov-12 07:59N 19°13' W 096°08'0 0.0
2017-Nov-12 07:26N 19°13' W 096°08'0 0.0
2017-Nov-12 06:56N 19°13' W 096°08'0 0.0
2017-Nov-12 06:29N 19°13' W 096°08'0 0.0
2017-Nov-12 05:59N 19°13' W 096°08'0 0.0
2017-Nov-12 05:29N 19°13' W 096°08'0 0.0
2017-Nov-12 04:59N 19°13' W 096°08'0 0.0
2017-Nov-12 04:26N 19°13' W 096°08'0 0.0
2017-Nov-12 03:53N 19°13' W 096°08'0 0.0
2017-Nov-12 03:29N 19°13' W 096°08'0 0.0
2017-Nov-12 02:59N 19°13' W 096°08'0 0.0
2017-Nov-12 02:29N 19°13' W 096°08'0 0.0
2017-Nov-12 01:59N 19°13' W 096°08'0 0.0
2017-Nov-12 01:29N 19°13' W 096°08'0 0.0
2017-Nov-12 00:59N 19°13' W 096°08'0 0.0
2017-Nov-12 00:26N 19°13' W 096°08'0 0.0
2017-Nov-11 23:53N 19°13' W 096°08'0 0.0
2017-Nov-11 23:29N 19°13' W 096°08'0 0.0
2017-Nov-11 22:59N 19°13' W 096°08'0 0.0
2017-Nov-11 22:29N 19°13' W 096°08'0 0.0
2017-Nov-11 21:53N 19°13' W 096°08'0 0.0
2017-Nov-11 21:26N 19°13' W 096°08'0 0.0
2017-Nov-11 20:56N 19°13' W 096°08'0 0.0
2017-Nov-11 20:26N 19°13' W 096°08'0 0.0
2017-Nov-11 19:56N 19°13' W 096°08'0 0.0
2017-Nov-11 19:26N 19°13' W 096°08'0 0.0
2017-Nov-11 18:59N 19°13' W 096°08'0 0.0
2017-Nov-11 18:26N 19°13' W 096°08'0 0.0
2017-Nov-11 17:50N 19°13' W 096°08'0 0.0
2017-Nov-11 17:26N 19°13' W 096°08'0 0.0
2017-Nov-11 16:59N 19°13' W 096°08'0 0.0
2017-Nov-11 16:20N 19°13' W 096°08'0 0.0
2017-Nov-11 15:56N 19°13' W 096°08'0 0.0
2017-Nov-11 15:29N 19°13' W 096°08'0 0.0
2017-Nov-11 14:59N 19°13' W 096°08'0 0.0
2017-Nov-11 14:26N 19°13' W 096°08'0 0.0
2017-Nov-11 13:50N 19°13' W 096°08'0 0.0
2017-Nov-11 13:26N 19°13' W 096°08'0 0.0
2017-Nov-11 12:56N 19°13' W 096°08'0 0.0
2017-Nov-11 12:26N 19°13' W 096°08'0 0.0
2017-Nov-11 11:56N 19°13' W 096°08'0 0.0
2017-Nov-11 11:29N 19°13' W 096°08'0 0.0
2017-Nov-11 10:59N 19°13' W 096°08'0 0.0
2017-Nov-11 10:29N 19°13' W 096°08'0 0.0
2017-Nov-11 09:59N 19°13' W 096°08'0 0.0
2017-Nov-11 09:29N 19°13' W 096°08'0 0.0
2017-Nov-11 08:59N 19°13' W 096°08'0 0.0
2017-Nov-11 08:29N 19°13' W 096°08'0 0.0
2017-Nov-11 07:59N 19°13' W 096°08'0 0.0
2017-Nov-11 07:26N 19°13' W 096°08'0 0.0
2017-Nov-11 06:59N 19°13' W 096°08'0 0.0
2017-Nov-11 06:29N 19°13' W 096°08'0 0.0
2017-Nov-11 05:56N 19°13' W 096°08'0 0.0
2017-Nov-11 05:26N 19°13' W 096°08'0 0.0
2017-Nov-11 04:59N 19°13' W 096°08'0 0.0
2017-Nov-11 04:29N 19°13' W 096°08'0 0.0
2017-Nov-11 03:59N 19°13' W 096°08'0 0.0
2017-Nov-11 03:29N 19°13' W 096°08'0 0.0
2017-Nov-11 02:59N 19°13' W 096°08'0 0.0
2017-Nov-11 02:29N 19°13' W 096°08'0 0.0
2017-Nov-11 01:59N 19°13' W 096°08'0 0.0
2017-Nov-11 01:29N 19°13' W 096°08'0 0.0
2017-Nov-11 00:59N 19°13' W 096°08'0 0.0
2017-Nov-11 00:29N 19°13' W 096°08'0 0.0
2017-Nov-10 23:56N 19°13' W 096°08'0 0.0
2017-Nov-10 23:29N 19°13' W 096°08'0 0.0
2017-Nov-10 22:56N 19°13' W 096°08'0 0.0
2017-Nov-10 22:26N 19°13' W 096°08'0 0.0
2017-Nov-10 21:59N 19°13' W 096°08'0 0.0
2017-Nov-10 21:26N 19°13' W 096°08'0 0.0
2017-Nov-10 20:59N 19°13' W 096°08'0 0.0
2017-Nov-10 20:26N 19°13' W 096°08'0 0.0
2017-Nov-10 19:56N 19°13' W 096°08'0 0.0
2017-Nov-10 19:29N 19°13' W 096°08'0 0.0
2017-Nov-10 18:59N 19°13' W 096°08'0 0.0
2017-Nov-10 18:23N 19°13' W 096°08'0 0.0
2017-Nov-10 17:59N 19°13' W 096°08'0 0.0
2017-Nov-10 17:29N 19°13' W 096°08'0 0.0
2017-Nov-10 16:59N 19°13' W 096°08'0 0.0
2017-Nov-10 16:29N 19°13' W 096°08'0 0.0
2017-Nov-10 15:59N 19°13' W 096°08'0 0.0
2017-Nov-10 15:29N 19°13' W 096°08'0 0.0
2017-Nov-10 14:56N 19°13' W 096°08'0 0.0
2017-Nov-10 14:29N 19°13' W 096°08'0 0.0
2017-Nov-10 13:59N 19°13' W 096°08'0 0.0
2017-Nov-10 13:29N 19°13' W 096°08'0 0.0
2017-Nov-10 12:59N 19°13' W 096°08'0 0.0
2017-Nov-10 12:29N 19°13' W 096°08'0 0.0
2017-Nov-10 11:59N 19°13' W 096°08'0 0.0
2017-Nov-10 11:29N 19°13' W 096°08'0 0.0
2017-Nov-10 10:59N 19°13' W 096°08'0 0.0
2017-Nov-10 10:23N 19°13' W 096°08'0 0.0
2017-Nov-10 09:59N 19°13' W 096°08'0 0.0
2017-Nov-10 09:29N 19°13' W 096°08'0 0.0
2017-Nov-10 08:59N 19°13' W 096°08'0 0.0
2017-Nov-10 08:29N 19°13' W 096°08'0 0.0
2017-Nov-10 07:59N 19°13' W 096°08'0 0.0
2017-Nov-10 07:29N 19°13' W 096°08'0 0.0
2017-Nov-10 06:59N 19°13' W 096°08'0 0.0
2017-Nov-10 06:26N 19°13' W 096°08'0 0.0
2017-Nov-10 05:59N 19°13' W 096°08'0 0.0
2017-Nov-10 05:26N 19°13' W 096°08'0 0.0
2017-Nov-10 04:59N 19°13' W 096°08'0 0.0
2017-Nov-10 04:29N 19°13' W 096°08'0 0.0
2017-Nov-10 03:59N 19°13' W 096°08'0 0.0
2017-Nov-10 03:29N 19°13' W 096°08'0 0.0
2017-Nov-10 02:59N 19°13' W 096°08'0 0.0
2017-Nov-10 02:29N 19°13' W 096°08'0 0.0
2017-Nov-10 01:59N 19°13' W 096°08'0 0.0
2017-Nov-10 01:29N 19°13' W 096°08'0 0.0
2017-Nov-10 00:53N 19°13' W 096°08'0 0.0
2017-Nov-10 00:29N 19°13' W 096°08'0 0.0
2017-Nov-09 23:59N 19°13' W 096°08'0 0.0
2017-Nov-09 23:29N 19°13' W 096°08'0 0.0
2017-Nov-09 22:59N 19°13' W 096°08'0 0.0
2017-Nov-09 22:29N 19°13' W 096°08'0 0.0
2017-Nov-09 21:59N 19°13' W 096°08'0 0.0
2017-Nov-09 21:23N 19°13' W 096°08'0 0.0
2017-Nov-09 20:59N 19°13' W 096°08'0 0.0
2017-Nov-09 20:29N 19°13' W 096°08'0 0.0
2017-Nov-09 19:59N 19°13' W 096°08'0 0.0
2017-Nov-09 19:29N 19°13' W 096°08'0 0.0
2017-Nov-09 18:59N 19°13' W 096°08'0 0.0
2017-Nov-09 18:29N 19°13' W 096°08'0 0.0
2017-Nov-09 17:59N 19°13' W 096°08'0 0.0
2017-Nov-09 17:26N 19°13' W 096°08'0 0.0
2017-Nov-09 16:59N 19°13' W 096°08'0 0.0
2017-Nov-09 16:29N 19°13' W 096°08'0 0.0
2017-Nov-09 15:59N 19°13' W 096°08'0 0.0
2017-Nov-09 15:29N 19°13' W 096°08'0 0.0
2017-Nov-09 14:59N 19°13' W 096°08'0 0.0
2017-Nov-09 14:29N 19°13' W 096°08'0 0.0
2017-Nov-09 13:56N 19°13' W 096°08'0 0.0
2017-Nov-09 13:29N 19°13' W 096°08'0 0.0
2017-Nov-09 12:59N 19°13' W 096°08'0 0.0
2017-Nov-09 12:29N 19°13' W 096°08'0 0.0
2017-Nov-09 11:59N 19°13' W 096°08'0 0.0
2017-Nov-09 11:26N 19°13' W 096°08'0 0.0
2017-Nov-09 10:56N 19°13' W 096°08'0 0.0
2017-Nov-09 10:29N 19°13' W 096°08'0 0.0
2017-Nov-09 09:59N 19°13' W 096°08'0 0.0
2017-Nov-09 09:26N 19°13' W 096°08'0 0.0
2017-Nov-09 08:56N 19°13' W 096°08'0 0.0
2017-Nov-09 08:29N 19°13' W 096°08'0 0.0
2017-Nov-09 07:59N 19°13' W 096°08'0 0.0
2017-Nov-09 07:26N 19°13' W 096°08'0 0.0
2017-Nov-09 06:59N 19°13' W 096°08'0 0.0
2017-Nov-09 06:29N 19°13' W 096°08'0 0.0
2017-Nov-09 05:59N 19°13' W 096°08'0 0.0
2017-Nov-09 05:29N 19°13' W 096°08'0 0.0
2017-Nov-09 04:56N 19°13' W 096°08'0 0.0
2017-Nov-09 04:29N 19°13' W 096°08'0 0.0
2017-Nov-09 03:59N 19°13' W 096°08'0 0.0
2017-Nov-09 03:29N 19°13' W 096°08'0 0.0
2017-Nov-09 02:56N 19°13' W 096°08'0 0.0
2017-Nov-09 02:29N 19°13' W 096°08'0 0.0
2017-Nov-09 02:00N 19°13' W 096°08'1 1.6
2017-Nov-09 01:31N 19°12' W 096°08'5 8.9
2017-Nov-09 01:00N 19°10' W 096°03'3 4.2
2017-Nov-09 00:23N 19°08' W 096°01'0 0.0
2017-Nov-08 23:59N 19°08' W 096°01'0 0.0
2017-Nov-08 23:29N 19°08' W 096°01'0 0.0
2017-Nov-08 22:59N 19°08' W 096°01'0 0.0
2017-Nov-08 22:29N 19°08' W 096°01'0 0.0
2017-Nov-08 21:59N 19°08' W 096°01'0 0.0
2017-Nov-08 21:17N 19°08' W 096°01'0 0.0
2017-Nov-08 20:59N 19°08' W 096°01'0 0.0
2017-Nov-08 20:29N 19°08' W 096°01'0 0.0
2017-Nov-08 19:59N 19°08' W 096°01'0 0.0
2017-Nov-08 19:29N 19°08' W 096°01'0 0.0
2017-Nov-08 18:53N 19°08' W 096°01'0 0.0
2017-Nov-08 18:29N 19°08' W 096°01'0 0.0
2017-Nov-08 17:59N 19°08' W 096°01'0 0.0
2017-Nov-08 17:29N 19°08' W 096°01'0 0.0
2017-Nov-08 16:59N 19°08' W 096°01'0 0.0
2017-Nov-08 16:29N 19°08' W 096°01'0 0.0
2017-Nov-08 15:59N 19°08' W 096°01'0 0.0
2017-Nov-08 15:29N 19°08' W 096°01'0 0.1
2017-Nov-08 14:59N 19°08' W 096°01'0 0.0
2017-Nov-08 14:29N 19°08' W 096°01'0 0.0
2017-Nov-08 13:59N 19°08' W 096°01'0 0.0
2017-Nov-08 13:29N 19°08' W 096°01'  

Dump ship's entire track history